Time;durP1;ratioP1;P1;durP2;ratioP2;P2;SDS_P1;SDS_P2;PMS_P1;PMS_P2;Temp;Humidity;BMP_temperature;BMP_pressure;BME280_temperature;BME280_humidity;BME280_pressure;Samples;Min_cycle;Max_cycle;Signal;HPM_P1;HPM_P2
2022/09/17 00:00:40;;;;;;;18.10;2.42;;;9.50;99.90;;;;;;5004791;28;20121;-68
2022/09/17 00:03:08;;;;;;;11.77;1.80;;;9.30;99.90;;;;;;5003167;28;20049;-68
2022/09/17 00:05:38;;;;;;;16.20;2.85;;;9.40;99.90;;;;;;5007525;28;20621;-68
2022/09/17 00:08:06;;;;;;;16.63;2.55;;;9.40;99.90;;;;;;5000224;28;20045;-68
2022/09/17 00:10:36;;;;;;;13.77;1.75;;;9.30;99.90;;;;;;5004992;28;20049;-68
2022/09/17 00:13:03;;;;;;;14.85;2.88;;;9.30;99.90;;;;;;4994318;28;20064;-68
2022/09/17 00:15:28;;;;;;;16.50;2.28;;;9.20;99.90;;;;;;5002205;28;20050;-68
2022/09/17 00:17:56;;;;;;;18.75;2.30;;;9.20;99.90;;;;;;5000188;28;20038;-68
2022/09/17 00:20:26;;;;;;;16.10;2.70;;;9.30;99.90;;;;;;5002866;28;20039;-68
2022/09/17 00:22:53;;;;;;;15.75;2.47;;;9.30;99.90;;;;;;5000760;28;20061;-68
2022/09/17 00:25:18;;;;;;;18.50;2.28;;;9.30;99.90;;;;;;5004459;28;20046;-68
2022/09/17 00:27:45;;;;;;;13.05;2.10;;;9.40;99.90;;;;;;5003137;28;20413;-68
2022/09/17 00:30:11;;;;;;;16.13;2.60;;;9.40;99.90;;;;;;5005281;28;20510;-69
2022/09/17 00:32:37;;;;;;;22.92;3.13;;;9.50;99.90;;;;;;4991575;28;20034;-68
2022/09/17 00:35:04;;;;;;;20.85;2.60;;;9.60;99.90;;;;;;5001257;28;20038;-68
2022/09/17 00:37:29;;;;;;;19.92;2.58;;;9.70;99.90;;;;;;4999841;28;20072;-68
2022/09/17 00:39:55;;;;;;;15.35;2.83;;;9.70;99.90;;;;;;5005738;28;20065;-68
2022/09/17 00:42:21;;;;;;;18.17;2.58;;;9.80;99.90;;;;;;5001227;28;20030;-68
2022/09/17 00:44:56;;;;;;;23.00;2.65;;;9.80;99.90;;;;;;4997667;28;20112;-68
2022/09/17 00:47:33;;;;;;;17.55;2.45;;;9.80;99.90;;;;;;5000573;28;20040;-68
2022/09/17 00:50:11;;;;;;;22.67;2.58;;;9.80;99.90;;;;;;4998635;28;20446;-67
2022/09/17 00:52:44;;;;;;;16.85;2.38;;;9.90;99.90;;;;;;5000996;28;20463;-67
2022/09/17 00:55:24;;;;;;;14.90;2.53;;;9.90;99.90;;;;;;5008776;28;20078;-67
2022/09/17 00:57:52;;;;;;;14.73;2.28;;;9.90;99.90;;;;;;5002464;28;20047;-67
2022/09/17 01:00:19;;;;;;;16.90;2.63;;;9.90;99.90;;;;;;5001591;28;20049;-67
2022/09/17 01:02:45;;;;;;;20.33;2.78;;;9.90;99.90;;;;;;5000489;28;20157;-67
2022/09/17 01:05:12;;;;;;;14.55;2.17;;;9.80;99.90;;;;;;4996531;28;20456;-67
2022/09/17 01:08:06;;;;;;;17.48;2.47;;;9.80;99.90;;;;;;5000203;28;20038;-67
2022/09/17 01:10:54;;;;;;;13.77;2.13;;;9.70;99.90;;;;;;4985876;28;20611;-68
2022/09/17 01:13:50;;;;;;;16.05;2.17;;;9.70;99.90;;;;;;5007397;28;20058;-68
2022/09/17 01:16:27;;;;;;;18.60;2.08;;;9.60;99.90;;;;;;5002982;28;20030;-67
2022/09/17 01:19:28;;;;;;;13.55;2.08;;;9.50;99.90;;;;;;5004319;28;20451;-68
2022/09/17 01:22:16;;;;;;;20.98;2.20;;;9.50;99.90;;;;;;5003923;28;20490;-67
2022/09/17 01:25:21;;;;;;;11.95;1.73;;;9.50;99.90;;;;;;5004513;28;20533;-67
2022/09/17 01:28:24;;;;;;;13.88;2.63;;;9.40;99.90;;;;;;5004409;28;20042;-67
2022/09/17 01:31:34;;;;;;;16.40;2.35;;;9.30;99.90;;;;;;5000281;28;20046;-68
2022/09/17 01:34:26;;;;;;;17.38;2.22;;;9.30;99.90;;;;;;5002930;28;20054;-68
2022/09/17 01:37:15;;;;;;;13.93;1.73;;;9.30;99.90;;;;;;5003637;28;20042;-68
2022/09/17 01:40:12;;;;;;;17.33;1.88;;;9.30;99.90;;;;;;5004043;28;20038;-68
2022/09/17 01:42:46;;;;;;;15.75;2.80;;;9.30;99.90;;;;;;5005814;28;20121;-68
2022/09/17 01:45:29;;;;;;;18.67;2.47;;;9.40;99.90;;;;;;5001772;28;20525;-68
2022/09/17 01:48:01;;;;;;;11.82;2.03;;;9.50;99.90;;;;;;5004463;28;20304;-68
2022/09/17 01:50:35;;;;;;;13.48;2.00;;;9.60;99.90;;;;;;5002157;28;20054;-68
2022/09/17 01:53:04;;;;;;;16.30;1.98;;;9.70;99.90;;;;;;5007609;28;20064;-68
2022/09/17 01:55:34;;;;;;;16.25;1.88;;;9.80;99.90;;;;;;5005603;28;20049;-68
2022/09/17 01:58:15;;;;;;;16.55;2.22;;;9.80;99.90;;;;;;5003147;28;20097;-68
2022/09/17 02:00:45;;;;;;;14.15;2.05;;;9.80;99.90;;;;;;5007201;28;20049;-68
2022/09/17 02:03:53;;;;;;;14.05;1.85;;;9.80;99.90;;;;;;5006772;28;20165;-68
2022/09/17 02:06:26;;;;;;;12.98;1.90;;;9.90;99.90;;;;;;4963581;28;20050;-68
2022/09/17 02:09:06;;;;;;;13.43;1.58;;;9.90;99.90;;;;;;5000173;28;20562;-68
2022/09/17 02:11:35;;;;;;;14.38;1.98;;;9.90;99.90;;;;;;5011969;28;20219;-68
2022/09/17 02:14:20;;;;;;;13.48;1.95;;;9.90;99.90;;;;;;5004132;28;20394;-68
2022/09/17 02:16:51;;;;;;;9.65;1.58;;;9.90;99.90;;;;;;4998201;28;20046;-68
2022/09/17 02:19:19;;;;;;;10.73;1.80;;;9.90;99.90;;;;;;5003153;28;20650;-68
2022/09/17 02:22:00;;;;;;;12.90;1.92;;;9.80;99.90;;;;;;5001891;28;20565;-68
2022/09/17 02:24:53;;;;;;;12.88;2.10;;;9.80;99.90;;;;;;5006480;28;20045;-68
2022/09/17 02:27:32;;;;;;;16.65;1.52;;;9.80;99.90;;;;;;4986840;28;20125;-68
2022/09/17 02:29:58;;;;;;;15.85;1.98;;;9.80;99.90;;;;;;5004520;28;20038;-67
2022/09/17 02:32:24;;;;;;;8.85;1.45;;;9.90;99.90;;;;;;4999105;28;20116;-67
2022/09/17 02:34:50;;;;;;;11.68;1.55;;;9.90;99.90;;;;;;5001401;28;20498;-67
2022/09/17 02:37:16;;;;;;;13.43;1.63;;;9.90;99.90;;;;;;4983343;28;20141;-67
2022/09/17 02:39:42;;;;;;;10.80;1.23;;;9.80;99.90;;;;;;5006059;28;20044;-68
2022/09/17 02:42:21;;;;;;;16.13;1.80;;;9.90;99.90;;;;;;5001032;28;20046;-67
2022/09/17 02:45:17;;;;;;;12.48;2.15;;;9.80;99.90;;;;;;5003442;28;20051;-67
2022/09/17 02:48:10;;;;;;;14.05;2.08;;;9.80;99.90;;;;;;5004527;28;20049;-68
2022/09/17 02:50:53;;;;;;;15.68;2.00;;;9.80;99.90;;;;;;5006772;28;20050;-68
2022/09/17 02:53:38;;;;;;;11.30;1.52;;;9.90;99.90;;;;;;5004716;28;20038;-67
2022/09/17 02:56:36;;;;;;;11.27;1.67;;;9.80;99.90;;;;;;5005440;28;20121;-67
2022/09/17 02:59:57;;;;;;;11.43;1.52;;;10.00;99.90;;;;;;4963242;28;20041;-68
2022/09/17 03:02:47;;;;;;;14.02;1.55;;;10.00;99.90;;;;;;4954161;28;20039;-68
2022/09/17 03:05:17;;;;;;;12.23;1.70;;;10.10;99.90;;;;;;5009943;28;20026;-68
2022/09/17 03:07:43;;;;;;;9.82;1.23;;;10.10;99.90;;;;;;5006268;28;20059;-67
2022/09/17 03:10:09;;;;;;;9.85;1.45;;;10.10;99.90;;;;;;5004160;28;20183;-67
2022/09/17 03:12:36;;;;;;;7.75;1.20;;;10.10;99.90;;;;;;4999919;28;20553;-68
2022/09/17 03:15:02;;;;;;;10.60;1.48;;;10.00;99.90;;;;;;4999251;28;20372;-67
2022/09/17 03:17:29;;;;;;;8.18;1.20;;;10.00;99.90;;;;;;4998563;28;20044;-68
2022/09/17 03:19:54;;;;;;;11.80;1.30;;;9.90;99.90;;;;;;4999463;28;20243;-68
2022/09/17 03:22:20;;;;;;;7.53;1.10;;;9.80;99.90;;;;;;5000198;28;20453;-67
2022/09/17 03:24:46;;;;;;;8.80;1.58;;;9.70;99.90;;;;;;5000741;28;20605;-67
2022/09/17 03:27:11;;;;;;;9.30;1.40;;;9.70;99.90;;;;;;4999984;28;20038;-67
2022/09/17 03:29:37;;;;;;;8.73;0.75;;;9.60;99.90;;;;;;5002584;28;20053;-67
2022/09/17 03:32:03;;;;;;;6.50;0.98;;;9.60;99.90;;;;;;5002831;28;20474;-67
2022/09/17 03:34:29;;;;;;;4.38;0.70;;;9.50;99.90;;;;;;4997428;28;20042;-67
2022/09/17 03:36:54;;;;;;;6.80;0.75;;;9.50;99.90;;;;;;5000157;28;20554;-67
2022/09/17 03:39:20;;;;;;;7.93;1.05;;;9.40;99.90;;;;;;4985599;28;20125;-67
2022/09/17 03:41:45;;;;;;;9.32;0.80;;;9.30;99.90;;;;;;5003148;28;20087;-67
2022/09/17 03:44:11;;;;;;;8.38;1.05;;;9.30;99.90;;;;;;5002965;28;20046;-67
2022/09/17 03:46:37;;;;;;;11.18;1.10;;;9.20;99.90;;;;;;5002755;28;20085;-67
2022/09/17 03:49:03;;;;;;;10.00;1.48;;;9.10;99.90;;;;;;4998569;28;20041;-67
2022/09/17 03:51:29;;;;;;;6.75;0.75;;;9.10;99.90;;;;;;5001212;28;20508;-67
2022/09/17 03:53:54;;;;;;;11.52;1.13;;;9.00;99.90;;;;;;5002382;28;20046;-67
2022/09/17 03:56:20;;;;;;;7.90;1.15;;;9.00;99.90;;;;;;4999749;28;20393;-66
2022/09/17 03:58:46;;;;;;;13.63;1.13;;;8.90;99.90;;;;;;4998860;28;20069;-67
2022/09/17 04:01:11;;;;;;;9.77;1.40;;;8.90;99.90;;;;;;5002130;28;20049;-67
2022/09/17 04:03:37;;;;;;;11.93;1.60;;;8.90;99.90;;;;;;4999863;28;20512;-67
2022/09/17 04:06:03;;;;;;;11.63;1.58;;;8.90;99.90;;;;;;5000650;28;20038;-68
2022/09/17 04:08:28;;;;;;;9.27;1.52;;;8.90;99.90;;;;;;4999903;28;20097;-67
2022/09/17 04:10:54;;;;;;;9.50;1.45;;;8.90;99.90;;;;;;5000391;28;20051;-67
2022/09/17 04:13:20;;;;;;;15.82;1.63;;;8.90;99.90;;;;;;4999330;28;20058;-67
2022/09/17 04:15:46;;;;;;;9.70;1.48;;;9.00;99.90;;;;;;4998328;28;20172;-67
2022/09/17 04:18:13;;;;;;;12.70;1.42;;;9.10;99.90;;;;;;5001406;28;20129;-67
2022/09/17 04:20:39;;;;;;;13.10;1.48;;;9.00;99.90;;;;;;4998492;28;20042;-67
2022/09/17 04:23:06;;;;;;;12.70;1.95;;;9.00;99.90;;;;;;4996447;28;20054;-67
2022/09/17 04:25:32;;;;;;;12.50;2.33;;;9.00;99.90;;;;;;4996065;28;20058;-67
2022/09/17 04:27:58;;;;;;;9.55;1.35;;;9.00;99.90;;;;;;4997882;28;20046;-67
2022/09/17 04:30:24;;;;;;;10.05;1.20;;;9.10;99.90;;;;;;4999106;28;20057;-67
2022/09/17 04:32:50;;;;;;;10.98;2.03;;;9.10;99.90;;;;;;4998270;28;20069;-67
2022/09/17 04:35:16;;;;;;;12.07;1.48;;;9.10;99.90;;;;;;5002118;28;20406;-68
2022/09/17 04:37:41;;;;;;;18.67;2.08;;;9.10;99.90;;;;;;4997459;28;20193;-67
2022/09/17 04:40:07;;;;;;;12.80;1.63;;;9.10;99.90;;;;;;4998523;28;20188;-67
2022/09/17 04:42:33;;;;;;;11.05;1.58;;;9.20;99.90;;;;;;4996713;28;20813;-68
2022/09/17 04:44:59;;;;;;;12.57;1.80;;;9.20;99.90;;;;;;5002541;28;20034;-68
2022/09/17 04:47:25;;;;;;;10.40;1.77;;;9.20;99.90;;;;;;5000071;28;20053;-68
2022/09/17 04:49:50;;;;;;;12.85;1.50;;;9.20;99.90;;;;;;5003804;28;20052;-68
2022/09/17 04:52:17;;;;;;;12.27;1.83;;;9.20;99.90;;;;;;5003258;28;20045;-68
2022/09/17 04:54:42;;;;;;;16.20;1.63;;;9.30;99.90;;;;;;5003894;28;20056;-68
2022/09/17 04:57:08;;;;;;;8.63;1.30;;;9.40;99.90;;;;;;5001041;28;20043;-68
2022/09/17 04:59:34;;;;;;;12.32;1.83;;;9.30;99.90;;;;;;5004432;28;20044;-68
2022/09/17 05:01:59;;;;;;;6.75;1.25;;;9.40;99.90;;;;;;5002856;28;20049;-68
2022/09/17 05:04:25;;;;;;;15.18;1.38;;;9.30;99.90;;;;;;5003811;28;20038;-68
2022/09/17 05:06:50;;;;;;;9.20;1.45;;;9.40;99.90;;;;;;5002077;28;20061;-68
2022/09/17 05:09:16;;;;;;;8.38;1.15;;;9.40;99.90;;;;;;5003157;28;20177;-68
2022/09/17 05:11:42;;;;;;;8.65;1.92;;;9.40;99.90;;;;;;5001206;28;20035;-68
2022/09/17 05:14:08;;;;;;;10.13;1.63;;;9.40;99.90;;;;;;5002113;28;20107;-69
2022/09/17 05:16:33;;;;;;;8.98;1.20;;;9.50;99.90;;;;;;5003071;28;20107;-69
2022/09/17 05:18:59;;;;;;;7.28;1.20;;;9.50;99.90;;;;;;5002612;28;20077;-67
2022/09/17 05:21:25;;;;;;;9.90;1.17;;;9.50;99.90;;;;;;4996964;28;20421;-67
2022/09/17 05:23:51;;;;;;;7.20;1.30;;;9.50;99.90;;;;;;5005618;28;20442;-67
2022/09/17 05:26:16;;;;;;;8.60;1.17;;;9.50;99.90;;;;;;5002772;28;20394;-67
2022/09/17 05:28:42;;;;;;;10.43;1.33;;;9.50;99.90;;;;;;4986747;28;20504;-67
2022/09/17 05:31:08;;;;;;;11.45;1.52;;;9.50;99.90;;;;;;5007973;28;20107;-67
2022/09/17 05:33:34;;;;;;;12.90;1.50;;;9.50;99.90;;;;;;5004789;28;20046;-67
2022/09/17 05:36:00;;;;;;;10.13;1.25;;;9.60;99.90;;;;;;5004857;28;20044;-67
2022/09/17 05:38:25;;;;;;;8.95;1.10;;;9.60;99.90;;;;;;5002374;28;20168;-67
2022/09/17 05:40:51;;;;;;;7.55;1.35;;;9.60;99.90;;;;;;5006254;28;20034;-67
2022/09/17 05:43:17;;;;;;;9.98;1.20;;;9.70;99.90;;;;;;5001421;28;20057;-67
2022/09/17 05:45:43;;;;;;;11.18;1.48;;;9.70;99.90;;;;;;5003848;28;20042;-67
2022/09/17 05:48:11;;;;;;;10.63;1.27;;;9.70;99.90;;;;;;5000381;28;20393;-67
2022/09/17 05:50:37;;;;;;;7.93;1.60;;;9.80;99.90;;;;;;5005601;28;20050;-67
2022/09/17 05:53:09;;;;;;;9.40;1.70;;;9.70;99.90;;;;;;5004440;28;20048;-66
2022/09/17 05:55:35;;;;;;;7.13;1.17;;;9.70;99.90;;;;;;5006736;28;20365;-67
2022/09/17 05:58:08;;;;;;;5.85;1.15;;;9.60;99.90;;;;;;5004959;28;20046;-67
2022/09/17 06:00:34;;;;;;;8.23;1.08;;;9.70;99.90;;;;;;5002345;28;20054;-67
2022/09/17 06:03:00;;;;;;;9.00;1.20;;;9.60;99.90;;;;;;5001327;28;20057;-67
2022/09/17 06:05:25;;;;;;;12.05;1.77;;;9.60;99.90;;;;;;4999717;28;20073;-67
2022/09/17 06:07:51;;;;;;;10.70;1.50;;;9.60;99.90;;;;;;5005916;28;20133;-67
2022/09/17 06:10:17;;;;;;;7.82;1.25;;;9.60;99.90;;;;;;5007053;28;20050;-67
2022/09/17 06:12:42;;;;;;;6.10;0.98;;;9.60;99.90;;;;;;5001020;28;20042;-67
2022/09/17 06:15:08;;;;;;;13.10;2.03;;;9.60;99.90;;;;;;5002223;28;20053;-67
2022/09/17 06:17:35;;;;;;;10.27;1.83;;;9.60;99.90;;;;;;5003685;28;20502;-68
2022/09/17 06:20:02;;;;;;;14.93;1.52;;;9.70;99.90;;;;;;5007001;28;20045;-68
2022/09/17 06:22:28;;;;;;;9.70;1.27;;;9.70;99.90;;;;;;5005418;28;20116;-68
2022/09/17 06:24:53;;;;;;;11.27;1.48;;;9.70;99.90;;;;;;5005435;28;20050;-67
2022/09/17 06:27:19;;;;;;;8.18;0.95;;;9.70;99.90;;;;;;5004376;28;20054;-67
2022/09/17 06:29:45;;;;;;;16.75;8.77;;;9.70;99.90;;;;;;5005131;28;20128;-67
2022/09/17 06:32:11;;;;;;;17.75;10.20;;;9.70;99.90;;;;;;5003330;28;20497;-68
2022/09/17 06:34:38;;;;;;;13.57;2.15;;;9.70;99.90;;;;;;5002494;28;20497;-68
2022/09/17 06:37:05;;;;;;;8.95;1.55;;;9.80;99.90;;;;;;5004300;28;20034;-69
2022/09/17 06:39:30;;;;;;;6.30;1.02;;;10.00;99.90;;;;;;5001317;28;20050;-69
2022/09/17 06:41:56;;;;;;;8.30;1.10;;;10.10;99.90;;;;;;5001239;28;20402;-69
2022/09/17 06:44:22;;;;;;;10.60;1.00;;;10.20;99.90;;;;;;5005750;28;20120;-69
2022/09/17 06:46:50;;;;;;;8.45;1.13;;;10.30;99.90;;;;;;5004278;28;20110;-69
2022/09/17 06:49:17;;;;;;;9.95;1.33;;;10.30;99.90;;;;;;5004908;28;20054;-69
2022/09/17 06:51:44;;;;;;;9.05;1.52;;;10.40;99.90;;;;;;5008081;28;20062;-69
2022/09/17 06:54:10;;;;;;;8.68;1.00;;;10.40;99.90;;;;;;5006386;28;20045;-69
2022/09/17 06:56:35;;;;;;;11.57;1.42;;;10.40;99.90;;;;;;5006522;28;20042;-69
2022/09/17 06:59:01;;;;;;;7.57;1.63;;;10.50;99.90;;;;;;5002285;28;20054;-69
2022/09/17 07:01:27;;;;;;;9.27;1.45;;;10.40;99.90;;;;;;5002047;28;20089;-69
2022/09/17 07:03:53;;;;;;;9.98;1.85;;;10.30;99.90;;;;;;5003483;28;20057;-69
2022/09/17 07:06:19;;;;;;;9.63;1.05;;;10.30;99.90;;;;;;5003925;28;20038;-69
2022/09/17 07:08:46;;;;;;;9.65;1.40;;;10.40;99.90;;;;;;5002303;28;20050;-69
2022/09/17 07:11:12;;;;;;;7.43;1.13;;;10.60;99.90;;;;;;5001104;28;20443;-69
2022/09/17 07:13:38;;;;;;;9.25;1.05;;;10.80;99.90;;;;;;5002063;28;20125;-69
2022/09/17 07:16:05;;;;;;;9.77;1.92;;;11.10;99.90;;;;;;5002578;28;20082;-69
2022/09/17 07:18:31;;;;;;;9.90;1.15;;;11.20;99.90;;;;;;5001347;28;20054;-69
2022/09/17 07:20:59;;;;;;;7.80;0.80;;;11.40;99.90;;;;;;5001525;28;20054;-69
2022/09/17 07:23:30;;;;;;;11.10;1.20;;;11.50;99.90;;;;;;5002631;28;20344;-69
2022/09/17 07:25:57;;;;;;;8.02;0.82;;;11.60;99.90;;;;;;5004176;28;20046;-69
2022/09/17 07:28:24;;;;;;;7.68;0.70;;;11.70;99.90;;;;;;5003675;28;20038;-70
2022/09/17 07:30:51;;;;;;;7.57;0.88;;;12.00;99.90;;;;;;4991203;28;20113;-69
2022/09/17 07:33:22;;;;;;;5.20;0.80;;;12.40;99.90;;;;;;5018818;28;20540;-69
2022/09/17 07:36:01;;;;;;;9.88;1.27;;;12.90;99.90;;;;;;5009437;28;20108;-69
2022/09/17 07:38:29;;;;;;;5.28;0.70;;;13.40;99.90;;;;;;5004655;28;20046;-69
2022/09/17 07:41:00;;;;;;;4.30;0.95;;;13.50;99.90;;;;;;5004717;28;20074;-69
2022/09/17 07:43:27;;;;;;;10.82;0.95;;;13.40;99.90;;;;;;4987048;28;20545;-66
2022/09/17 07:45:55;;;;;;;6.43;0.75;;;13.20;99.90;;;;;;5008029;28;20243;-67
2022/09/17 07:48:21;;;;;;;7.72;0.70;;;13.00;99.90;;;;;;4998040;28;20046;-67
2022/09/17 07:50:46;;;;;;;6.35;0.73;;;12.80;99.90;;;;;;4999416;28;20109;-67
2022/09/17 07:53:12;;;;;;;5.78;0.73;;;12.50;99.90;;;;;;5004262;28;20460;-68
2022/09/17 07:55:38;;;;;;;8.07;0.88;;;12.60;99.90;;;;;;5002147;28;20040;-68
2022/09/17 07:58:04;;;;;;;12.85;1.10;;;12.90;99.90;;;;;;5000446;28;20033;-68
2022/09/17 08:00:30;;;;;;;3.50;0.50;;;13.30;99.90;;;;;;4985687;28;20490;-68
2022/09/17 08:02:56;;;;;;;5.25;0.80;;;13.90;99.90;;;;;;4983751;28;20061;-68
2022/09/17 08:05:23;;;;;;;7.00;0.80;;;14.70;99.90;;;;;;4999192;28;20045;-68
2022/09/17 08:07:53;;;;;;;5.40;0.80;;;15.50;99.90;;;;;;5000527;28;20557;-68
2022/09/17 08:10:21;;;;;;;8.18;1.25;;;16.00;99.90;;;;;;5001818;28;20045;-68
2022/09/17 08:12:55;;;;;;;6.82;0.82;;;15.30;99.90;;;;;;5003742;28;20524;-67
2022/09/17 08:15:21;;;;;;;4.70;0.80;;;14.60;99.90;;;;;;4988271;28;20078;-67
2022/09/17 08:17:47;;;;;;;6.90;0.70;;;13.90;99.90;;;;;;5001244;28;20033;-67
2022/09/17 08:20:14;;;;;;;4.95;0.60;;;13.40;99.90;;;;;;5003768;28;20031;-67
2022/09/17 08:22:41;;;;;;;3.80;0.60;;;13.10;99.90;;;;;;5001995;28;20073;-67
2022/09/17 08:25:08;;;;;;;4.97;0.60;;;12.80;99.90;;;;;;5003621;28;20088;-67
2022/09/17 08:27:35;;;;;;;4.75;0.80;;;12.80;99.90;;;;;;5003276;28;20054;-68
2022/09/17 08:30:00;;;;;;;5.60;0.75;;;13.10;99.90;;;;;;5004578;28;20462;-68
2022/09/17 08:32:28;;;;;;;5.82;0.70;;;14.10;99.90;;;;;;4999290;28;20057;-68
2022/09/17 08:34:55;;;;;;;5.07;0.50;;;14.60;99.90;;;;;;4992230;28;20539;-68
2022/09/17 08:37:20;;;;;;;3.95;0.50;;;15.30;99.90;;;;;;4998540;28;20046;-68
2022/09/17 08:39:46;;;;;;;4.03;0.50;;;15.70;99.90;;;;;;4999723;28;20065;-68
2022/09/17 08:42:48;;;;;;;4.72;0.40;;;15.60;99.90;;;;;;4996449;28;20490;-68
2022/09/17 08:45:17;;;;;;;2.78;0.32;;;15.70;99.90;;;;;;4999711;28;20323;-68
2022/09/17 08:47:45;;;;;;;3.13;0.40;;;15.50;99.90;;;;;;5001587;28;20089;-69
2022/09/17 08:50:32;;;;;;;2.97;0.45;;;15.10;99.90;;;;;;5005112;28;20057;-67
2022/09/17 08:53:21;;;;;;;3.35;0.60;;;14.80;99.90;;;;;;5003880;28;20596;-68
2022/09/17 08:56:25;;;;;;;3.65;0.47;;;14.80;99.90;;;;;;5003824;28;20049;-69
2022/09/17 08:58:56;;;;;;;3.00;0.52;;;14.80;99.90;;;;;;4881476;29;20052;-69
2022/09/17 09:01:38;;;;;;;5.13;0.65;;;14.40;99.90;;;;;;4889656;29;20040;-69
2022/09/17 09:04:25;;;;;;;4.28;0.30;;;14.10;99.90;;;;;;4956241;28;20200;-69
2022/09/17 09:07:05;;;;;;;5.75;0.68;;;13.70;99.90;;;;;;5003217;28;20494;-68
2022/09/17 09:09:38;;;;;;;3.47;0.50;;;13.70;99.90;;;;;;5016003;28;20042;-68
2022/09/17 09:12:12;;;;;;;4.50;0.50;;;13.50;99.90;;;;;;5001701;28;20042;-68
2022/09/17 09:15:02;;;;;;;3.10;0.55;;;13.50;99.90;;;;;;5003936;28;20046;-69
2022/09/17 09:17:35;;;;;;;4.85;0.80;;;14.10;99.90;;;;;;4986815;28;20121;-69
2022/09/17 09:20:01;;;;;;;5.43;0.65;;;15.30;99.90;;;;;;5000119;28;20030;-69
2022/09/17 09:22:27;;;;;;;2.20;0.35;;;16.30;99.90;;;;;;5004131;28;20044;-69
2022/09/17 09:25:08;;;;;;;3.28;0.47;;;17.20;99.90;;;;;;4998886;28;20053;-69
2022/09/17 09:27:42;;;;;;;3.28;0.55;;;18.10;99.90;;;;;;5000758;28;20034;-69
2022/09/17 09:30:10;;;;;;;4.55;0.70;;;18.40;99.90;;;;;;4980779;28;20038;-69
2022/09/17 09:32:57;;;;;;;4.50;0.60;;;18.20;99.90;;;;;;5007550;28;20527;-69
2022/09/17 09:35:28;;;;;;;5.65;0.80;;;18.00;99.90;;;;;;5006079;28;20048;-70
2022/09/17 09:38:00;;;;;;;3.97;0.55;;;18.30;99.90;;;;;;4991473;28;20125;-69
2022/09/17 09:40:35;;;;;;;3.78;0.88;;;18.90;99.90;;;;;;5005221;28;20385;-69
2022/09/17 09:43:11;;;;;;;3.80;0.63;;;19.10;99.90;;;;;;5006197;28;20037;-69
2022/09/17 09:45:53;;;;;;;5.47;0.80;;;18.60;99.90;;;;;;5005575;28;20050;-68
2022/09/17 09:48:44;;;;;;;4.32;0.70;;;17.80;99.90;;;;;;5006422;28;20068;-68
2022/09/17 09:51:37;;;;;;;4.35;0.60;;;17.00;99.90;;;;;;5005143;28;20145;-68
2022/09/17 09:54:34;;;;;;;6.15;0.77;;;16.20;99.90;;;;;;5005786;28;20053;-68
2022/09/17 09:57:06;;;;;;;4.07;0.60;;;15.70;99.90;;;;;;5005474;28;20064;-68
2022/09/17 09:59:34;;;;;;;2.90;0.30;;;15.80;99.90;;;;;;5004058;28;20390;-68
2022/09/17 10:02:00;;;;;;;2.22;0.20;;;16.60;99.90;;;;;;5005850;28;20141;-68
2022/09/17 10:04:27;;;;;;;3.22;0.50;;;17.00;99.90;;;;;;5010033;28;20467;-67
2022/09/17 10:07:10;;;;;;;2.88;0.30;;;16.50;99.90;;;;;;5007533;28;20042;-68
2022/09/17 10:09:39;;;;;;;3.30;0.50;;;15.80;99.90;;;;;;5010242;28;20053;-68
2022/09/17 10:12:14;;;;;;;5.72;0.63;;;15.20;99.90;;;;;;5003514;28;20065;-68
2022/09/17 10:14:45;;;;;;;4.13;0.45;;;14.60;99.90;;;;;;5004915;28;20486;-68
2022/09/17 10:17:25;;;;;;;3.95;0.60;;;14.20;99.90;;;;;;4992861;28;20041;-68
2022/09/17 10:20:10;;;;;;;4.95;0.68;;;14.20;99.90;;;;;;5007005;28;20354;-67
2022/09/17 10:22:47;;;;;;;3.78;0.50;;;14.30;99.90;;;;;;5004959;28;20101;-68
2022/09/17 10:25:21;;;;;;;3.28;0.30;;;15.00;99.90;;;;;;5004578;28;20038;-67
2022/09/17 10:27:48;;;;;;;3.90;0.68;;;15.80;99.90;;;;;;5003567;28;20559;-68
2022/09/17 10:30:16;;;;;;;3.50;0.30;;;15.70;99.90;;;;;;5003427;28;20097;-68
2022/09/17 10:32:42;;;;;;;3.42;0.47;;;15.40;99.90;;;;;;5000593;28;20454;-69
2022/09/17 10:35:28;;;;;;;4.70;0.55;;;15.80;99.90;;;;;;5002443;28;20038;-69
2022/09/17 10:37:54;;;;;;;4.22;0.65;;;16.90;99.90;;;;;;5003036;28;20030;-69
2022/09/17 10:40:20;;;;;;;3.63;0.60;;;17.80;99.90;;;;;;5002261;28;20390;-69
2022/09/17 10:43:09;;;;;;;4.57;0.82;;;18.10;99.90;;;;;;5003241;28;20062;-69
2022/09/17 10:45:39;;;;;;;3.25;0.50;;;18.50;99.90;;;;;;5002625;28;20054;-69
2022/09/17 10:48:15;;;;;;;6.55;1.25;;;19.00;99.90;;;;;;5003703;28;20074;-68
2022/09/17 10:50:51;;;;;;;6.95;0.85;;;19.00;98.60;;;;;;5004258;28;20041;-68
2022/09/17 10:53:18;;;;;;;5.72;0.95;;;18.90;99.60;;;;;;5006287;28;20197;-68
2022/09/17 10:55:47;;;;;;;5.78;0.85;;;19.10;99.90;;;;;;5004449;28;20050;-69
2022/09/17 10:58:36;;;;;;;7.38;0.95;;;19.40;99.90;;;;;;5003652;28;20042;-68
2022/09/17 11:01:21;;;;;;;9.35;0.95;;;19.90;99.10;;;;;;5004917;28;20062;-69
2022/09/17 11:03:58;;;;;;;6.45;0.98;;;20.10;97.80;;;;;;4998619;28;20485;-68
2022/09/17 11:06:24;;;;;;;8.25;1.05;;;20.40;97.90;;;;;;5003080;28;20093;-66
2022/09/17 11:08:59;;;;;;;6.88;0.80;;;20.50;95.80;;;;;;5003453;28;20096;-66
2022/09/17 11:12:03;;;;;;;6.30;1.00;;;20.40;92.80;;;;;;5004544;28;20099;-68
2022/09/17 11:14:41;;;;;;;9.73;1.47;;;19.90;89.50;;;;;;4964366;28;20442;-67
2022/09/17 11:17:38;;;;;;;3.97;0.80;;;19.70;91.40;;;;;;5001199;28;20054;-67
2022/09/17 11:20:25;;;;;;;4.63;0.52;;;20.00;87.40;;;;;;4986744;28;20050;-69
2022/09/17 11:23:20;;;;;;;4.68;0.30;;;20.00;85.80;;;;;;4997722;28;20065;-69
2022/09/17 11:25:49;;;;;;;4.03;0.60;;;18.60;89.70;;;;;;5003744;28;20112;-68
2022/09/17 11:28:51;;;;;;;4.05;0.52;;;17.10;93.40;;;;;;4998253;28;20042;-67
2022/09/17 11:31:54;;;;;;;4.32;0.60;;;16.00;96.10;;;;;;5004590;28;20120;-67
2022/09/17 11:34:29;;;;;;;7.50;0.93;;;14.90;99.90;;;;;;5003342;28;20053;-68
2022/09/17 11:37:12;;;;;;;4.82;0.73;;;14.10;99.90;;;;;;5000913;28;20077;-68
2022/09/17 11:40:13;;;;;;;6.50;0.60;;;13.50;99.90;;;;;;5000717;28;20084;-67
2022/09/17 11:42:53;;;;;;;7.32;0.93;;;13.10;99.90;;;;;;4983650;28;20046;-68
2022/09/17 11:45:37;;;;;;;6.50;0.68;;;12.80;99.90;;;;;;5002375;28;20057;-66
2022/09/17 11:48:14;;;;;;;5.57;0.60;;;12.70;99.90;;;;;;5002330;28;20084;-67
2022/09/17 11:50:49;;;;;;;5.43;0.88;;;12.60;99.90;;;;;;5000158;28;20046;-67
2022/09/17 11:53:19;;;;;;;5.32;0.55;;;12.60;99.90;;;;;;5001644;28;20406;-67
2022/09/17 11:55:54;;;;;;;2.78;0.30;;;12.90;99.90;;;;;;4997239;28;20049;-67
2022/09/17 11:58:37;;;;;;;4.85;0.60;;;13.80;99.90;;;;;;4995971;28;20038;-67
2022/09/17 12:01:16;;;;;;;6.53;0.63;;;14.20;99.90;;;;;;4998932;28;20053;-67
2022/09/17 12:03:50;;;;;;;2.40;0.55;;;14.00;99.90;;;;;;5005606;28;20413;-67
2022/09/17 12:06:22;;;;;;;4.70;0.55;;;13.80;99.90;;;;;;5002531;28;20058;-67
2022/09/17 12:09:16;;;;;;;4.22;0.85;;;13.50;99.90;;;;;;5002764;28;20038;-67
2022/09/17 12:12:08;;;;;;;4.53;0.50;;;13.30;99.90;;;;;;5000017;28;20585;-66
2022/09/17 12:15:04;;;;;;;8.32;1.20;;;13.20;99.90;;;;;;5000145;28;20129;-67
2022/09/17 12:18:16;;;;;;;5.40;0.80;;;13.30;99.90;;;;;;5002462;28;20100;-67
2022/09/17 12:20:46;;;;;;;8.68;0.90;;;13.40;99.90;;;;;;4986252;28;20397;-67
2022/09/17 12:23:17;;;;;;;5.40;0.70;;;13.40;99.90;;;;;;4998387;28;20560;-66
2022/09/17 12:25:59;;;;;;;7.75;1.10;;;13.40;99.90;;;;;;5003579;28;20041;-67
2022/09/17 12:28:51;;;;;;;9.38;1.45;;;13.50;99.90;;;;;;5003152;28;20045;-67
2022/09/17 12:32:00;;;;;;;9.80;1.30;;;14.10;99.90;;;;;;4996332;28;20046;-67
2022/09/17 12:34:44;;;;;;;9.75;1.38;;;14.80;99.90;;;;;;4923213;29;20051;-67
2022/09/17 12:37:42;;;;;;;10.90;1.40;;;16.10;99.90;;;;;;4994880;28;20081;-68
2022/09/17 12:40:16;;;;;;;6.47;1.00;;;17.40;99.90;;;;;;4995726;28;20494;-67
2022/09/17 12:42:59;;;;;;;9.63;1.33;;;18.40;99.90;;;;;;4993466;28;20317;-68
2022/09/17 12:45:33;;;;;;;8.48;1.38;;;18.90;99.90;;;;;;4997718;28;20042;-68
2022/09/17 12:48:13;;;;;;;;;;;19.30;98.50;;;;;;5003391;28;20212;-68
2022/09/17 12:51:00;;;;;;;7.32;1.45;;;19.60;96.40;;;;;;5001008;28;19921;-67
2022/09/17 12:53:41;;;;;;;9.68;1.30;;;19.80;94.50;;;;;;5004645;28;20065;-66
2022/09/17 12:56:10;;;;;;;10.40;1.33;;;19.90;96.00;;;;;;5003739;28;20073;-66
2022/09/17 12:59:19;;;;;;;9.85;1.85;;;20.20;94.40;;;;;;4999275;28;20477;-64
2022/09/17 13:02:03;;;;;;;9.15;1.45;;;20.30;92.40;;;;;;5003088;28;20112;-68
2022/09/17 13:04:57;;;;;;;11.73;1.92;;;20.10;91.30;;;;;;5002768;28;20057;-65
2022/09/17 13:07:51;;;;;;;8.43;1.52;;;19.70;89.30;;;;;;5008885;28;20042;-65
2022/09/17 13:10:29;;;;;;;10.45;1.40;;;19.20;85.50;;;;;;5007022;28;20424;-66
2022/09/17 13:13:00;;;;;;;9.43;1.67;;;17.90;89.70;;;;;;5006548;28;20409;-65
2022/09/17 13:15:49;;;;;;;11.00;1.80;;;17.10;92.50;;;;;;5004354;28;20137;-65
2022/09/17 13:19:02;;;;;;;10.48;2.22;;;17.10;93.40;;;;;;4993525;28;20046;-65
2022/09/17 13:21:48;;;;;;;7.47;1.45;;;17.90;91.80;;;;;;4967161;28;20502;-65